sensor_id;sensor_type;location;lat;lon;timestamp;P1;durP1;ratioP1;P2;durP2;ratioP2
49722;SDS011;43484;43.608;1.458;2022-12-29T00:01:38;29.05;;;17.95;;
49722;SDS011;43484;43.608;1.458;2022-12-29T00:04:05;27.67;;;17.25;;
49722;SDS011;43484;43.608;1.458;2022-12-29T00:06:39;26.45;;;16.98;;
49722;SDS011;43484;43.608;1.458;2022-12-29T00:09:06;24.88;;;16.67;;
49722;SDS011;43484;43.608;1.458;2022-12-29T00:11:33;28.90;;;16.95;;
49722;SDS011;43484;43.608;1.458;2022-12-29T00:14:00;28.05;;;17.52;;
49722;SDS011;43484;43.608;1.458;2022-12-29T00:16:51;29.63;;;16.23;;
49722;SDS011;43484;43.608;1.458;2022-12-29T00:19:17;25.52;;;15.68;;
49722;SDS011;43484;43.608;1.458;2022-12-29T00:22:03;27.00;;;17.52;;
49722;SDS011;43484;43.608;1.458;2022-12-29T00:24:48;26.00;;;16.52;;
49722;SDS011;43484;43.608;1.458;2022-12-29T00:27:31;24.70;;;15.63;;
49722;SDS011;43484;43.608;1.458;2022-12-29T00:30:18;26.80;;;15.95;;
49722;SDS011;43484;43.608;1.458;2022-12-29T00:33:17;27.20;;;14.60;;
49722;SDS011;43484;43.608;1.458;2022-12-29T00:36:09;23.40;;;15.55;;
49722;SDS011;43484;43.608;1.458;2022-12-29T00:38:43;21.90;;;14.63;;
49722;SDS011;43484;43.608;1.458;2022-12-29T00:41:32;26.05;;;16.42;;
49722;SDS011;43484;43.608;1.458;2022-12-29T00:44:17;27.42;;;15.43;;
49722;SDS011;43484;43.608;1.458;2022-12-29T00:46:44;27.45;;;15.20;;
49722;SDS011;43484;43.608;1.458;2022-12-29T00:49:11;24.80;;;14.90;;
49722;SDS011;43484;43.608;1.458;2022-12-29T00:54:26;26.67;;;14.63;;
49722;SDS011;43484;43.608;1.458;2022-12-29T00:56:55;22.02;;;14.50;;
49722;SDS011;43484;43.608;1.458;2022-12-29T00:59:21;23.02;;;13.85;;
49722;SDS011;43484;43.608;1.458;2022-12-29T01:01:51;23.75;;;14.63;;
49722;SDS011;43484;43.608;1.458;2022-12-29T01:04:20;23.50;;;14.40;;
49722;SDS011;43484;43.608;1.458;2022-12-29T01:06:48;20.50;;;14.15;;
49722;SDS011;43484;43.608;1.458;2022-12-29T01:09:15;21.88;;;13.43;;
49722;SDS011;43484;43.608;1.458;2022-12-29T01:12:01;21.02;;;14.63;;
49722;SDS011;43484;43.608;1.458;2022-12-29T01:14:28;22.58;;;13.32;;
49722;SDS011;43484;43.608;1.458;2022-12-29T01:16:55;23.27;;;12.77;;
49722;SDS011;43484;43.608;1.458;2022-12-29T01:19:22;21.77;;;13.80;;
49722;SDS011;43484;43.608;1.458;2022-12-29T01:21:49;20.08;;;13.77;;
49722;SDS011;43484;43.608;1.458;2022-12-29T01:24:17;25.48;;;15.93;;
49722;SDS011;43484;43.608;1.458;2022-12-29T01:26:44;24.30;;;15.90;;
49722;SDS011;43484;43.608;1.458;2022-12-29T01:29:11;24.50;;;15.02;;
49722;SDS011;43484;43.608;1.458;2022-12-29T01:31:39;26.17;;;14.68;;
49722;SDS011;43484;43.608;1.458;2022-12-29T01:34:06;21.13;;;13.77;;
49722;SDS011;43484;43.608;1.458;2022-12-29T01:36:33;23.17;;;12.95;;
49722;SDS011;43484;43.608;1.458;2022-12-29T01:39:00;20.58;;;12.43;;
49722;SDS011;43484;43.608;1.458;2022-12-29T01:41:26;19.35;;;12.88;;
49722;SDS011;43484;43.608;1.458;2022-12-29T01:43:56;19.20;;;12.25;;
49722;SDS011;43484;43.608;1.458;2022-12-29T01:46:35;18.15;;;12.18;;
49722;SDS011;43484;43.608;1.458;2022-12-29T01:51:53;20.42;;;13.07;;
49722;SDS011;43484;43.608;1.458;2022-12-29T01:54:35;26.30;;;12.48;;
49722;SDS011;43484;43.608;1.458;2022-12-29T01:57:07;20.38;;;11.85;;
49722;SDS011;43484;43.608;1.458;2022-12-29T01:59:38;23.58;;;12.88;;
49722;SDS011;43484;43.608;1.458;2022-12-29T02:02:09;24.40;;;11.80;;
49722;SDS011;43484;43.608;1.458;2022-12-29T02:04:36;22.73;;;12.10;;
49722;SDS011;43484;43.608;1.458;2022-12-29T02:07:08;27.73;;;13.43;;
49722;SDS011;43484;43.608;1.458;2022-12-29T02:09:43;22.95;;;12.50;;
49722;SDS011;43484;43.608;1.458;2022-12-29T02:12:13;20.77;;;12.50;;
49722;SDS011;43484;43.608;1.458;2022-12-29T02:14:43;21.17;;;10.68;;
49722;SDS011;43484;43.608;1.458;2022-12-29T02:31:44;19.88;;;11.10;;
49722;SDS011;43484;43.608;1.458;2022-12-29T02:39:38;22.75;;;12.43;;
49722;SDS011;43484;43.608;1.458;2022-12-29T02:50:20;26.35;;;13.68;;
49722;SDS011;43484;43.608;1.458;2022-12-29T02:52:52;18.50;;;12.23;;
49722;SDS011;43484;43.608;1.458;2022-12-29T02:55:24;28.45;;;13.50;;
49722;SDS011;43484;43.608;1.458;2022-12-29T03:00:33;25.42;;;12.55;;
49722;SDS011;43484;43.608;1.458;2022-12-29T03:03:28;24.48;;;13.55;;
49722;SDS011;43484;43.608;1.458;2022-12-29T03:09:37;21.27;;;11.55;;
49722;SDS011;43484;43.608;1.458;2022-12-29T03:12:31;20.42;;;12.27;;
49722;SDS011;43484;43.608;1.458;2022-12-29T03:15:26;23.35;;;12.38;;
49722;SDS011;43484;43.608;1.458;2022-12-29T03:18:39;23.40;;;12.10;;
49722;SDS011;43484;43.608;1.458;2022-12-29T03:23:40;26.38;;;13.43;;
49722;SDS011;43484;43.608;1.458;2022-12-29T03:26:10;23.80;;;12.82;;
49722;SDS011;43484;43.608;1.458;2022-12-29T03:28:41;24.80;;;13.68;;
49722;SDS011;43484;43.608;1.458;2022-12-29T03:31:16;39.50;;;14.63;;
49722;SDS011;43484;43.608;1.458;2022-12-29T03:33:45;26.30;;;12.88;;
49722;SDS011;43484;43.608;1.458;2022-12-29T03:36:16;26.38;;;13.70;;
49722;SDS011;43484;43.608;1.458;2022-12-29T03:39:08;32.58;;;13.52;;
49722;SDS011;43484;43.608;1.458;2022-12-29T03:41:38;25.58;;;12.75;;
49722;SDS011;43484;43.608;1.458;2022-12-29T03:44:08;27.25;;;12.35;;
49722;SDS011;43484;43.608;1.458;2022-12-29T03:46:35;24.50;;;11.90;;
49722;SDS011;43484;43.608;1.458;2022-12-29T03:49:01;30.17;;;13.23;;
49722;SDS011;43484;43.608;1.458;2022-12-29T03:51:28;23.33;;;12.43;;
49722;SDS011;43484;43.608;1.458;2022-12-29T03:53:55;25.02;;;12.23;;
49722;SDS011;43484;43.608;1.458;2022-12-29T03:56:22;27.00;;;11.80;;
49722;SDS011;43484;43.608;1.458;2022-12-29T03:58:48;26.02;;;14.20;;
49722;SDS011;43484;43.608;1.458;2022-12-29T04:01:15;20.60;;;12.32;;
49722;SDS011;43484;43.608;1.458;2022-12-29T04:03:43;31.50;;;12.65;;
49722;SDS011;43484;43.608;1.458;2022-12-29T04:06:09;21.90;;;10.27;;
49722;SDS011;43484;43.608;1.458;2022-12-29T04:08:36;23.33;;;12.93;;
49722;SDS011;43484;43.608;1.458;2022-12-29T04:11:02;27.08;;;12.13;;
49722;SDS011;43484;43.608;1.458;2022-12-29T04:13:30;19.90;;;10.25;;
49722;SDS011;43484;43.608;1.458;2022-12-29T04:15:57;26.10;;;10.93;;
49722;SDS011;43484;43.608;1.458;2022-12-29T04:18:24;24.92;;;10.10;;
49722;SDS011;43484;43.608;1.458;2022-12-29T04:20:51;24.25;;;11.23;;
49722;SDS011;43484;43.608;1.458;2022-12-29T04:23:27;23.05;;;11.55;;
49722;SDS011;43484;43.608;1.458;2022-12-29T04:25:55;23.85;;;10.73;;
49722;SDS011;43484;43.608;1.458;2022-12-29T04:28:22;21.88;;;11.32;;
49722;SDS011;43484;43.608;1.458;2022-12-29T04:30:50;20.00;;;10.85;;
49722;SDS011;43484;43.608;1.458;2022-12-29T04:33:17;23.10;;;10.73;;
49722;SDS011;43484;43.608;1.458;2022-12-29T04:35:44;17.02;;;10.43;;
49722;SDS011;43484;43.608;1.458;2022-12-29T04:38:11;20.70;;;9.85;;
49722;SDS011;43484;43.608;1.458;2022-12-29T04:40:40;21.35;;;10.77;;
49722;SDS011;43484;43.608;1.458;2022-12-29T04:43:07;20.92;;;10.02;;
49722;SDS011;43484;43.608;1.458;2022-12-29T04:45:35;24.92;;;10.57;;
49722;SDS011;43484;43.608;1.458;2022-12-29T04:48:02;23.77;;;9.57;;
49722;SDS011;43484;43.608;1.458;2022-12-29T04:50:28;24.05;;;10.57;;
49722;SDS011;43484;43.608;1.458;2022-12-29T04:52:55;23.98;;;10.23;;
49722;SDS011;43484;43.608;1.458;2022-12-29T04:55:22;27.35;;;9.95;;
49722;SDS011;43484;43.608;1.458;2022-12-29T04:57:48;17.05;;;9.77;;
49722;SDS011;43484;43.608;1.458;2022-12-29T05:00:15;20.70;;;10.25;;
49722;SDS011;43484;43.608;1.458;2022-12-29T05:02:41;21.27;;;10.52;;
49722;SDS011;43484;43.608;1.458;2022-12-29T05:05:08;21.70;;;11.20;;
49722;SDS011;43484;43.608;1.458;2022-12-29T05:07:35;19.05;;;10.93;;
49722;SDS011;43484;43.608;1.458;2022-12-29T05:10:02;22.30;;;10.40;;
49722;SDS011;43484;43.608;1.458;2022-12-29T05:12:30;17.45;;;10.23;;
49722;SDS011;43484;43.608;1.458;2022-12-29T05:14:59;22.05;;;10.70;;
49722;SDS011;43484;43.608;1.458;2022-12-29T05:17:26;19.92;;;10.50;;
49722;SDS011;43484;43.608;1.458;2022-12-29T05:19:52;23.98;;;10.75;;
49722;SDS011;43484;43.608;1.458;2022-12-29T05:22:19;16.10;;;10.23;;
49722;SDS011;43484;43.608;1.458;2022-12-29T05:24:46;17.15;;;9.57;;
49722;SDS011;43484;43.608;1.458;2022-12-29T05:27:13;19.65;;;9.48;;
49722;SDS011;43484;43.608;1.458;2022-12-29T05:29:39;19.20;;;9.38;;
49722;SDS011;43484;43.608;1.458;2022-12-29T05:32:06;19.15;;;9.52;;
49722;SDS011;43484;43.608;1.458;2022-12-29T05:34:32;25.17;;;10.43;;
49722;SDS011;43484;43.608;1.458;2022-12-29T05:36:59;17.45;;;10.50;;
49722;SDS011;43484;43.608;1.458;2022-12-29T05:39:26;21.13;;;9.90;;
49722;SDS011;43484;43.608;1.458;2022-12-29T05:41:52;19.88;;;11.02;;
49722;SDS011;43484;43.608;1.458;2022-12-29T05:44:19;20.08;;;11.07;;
49722;SDS011;43484;43.608;1.458;2022-12-29T05:46:45;19.02;;;11.50;;
49722;SDS011;43484;43.608;1.458;2022-12-29T05:49:12;18.27;;;10.68;;
49722;SDS011;43484;43.608;1.458;2022-12-29T05:51:39;25.38;;;11.45;;
49722;SDS011;43484;43.608;1.458;2022-12-29T05:54:05;23.98;;;11.93;;
49722;SDS011;43484;43.608;1.458;2022-12-29T05:56:32;26.05;;;12.30;;
49722;SDS011;43484;43.608;1.458;2022-12-29T05:59:00;19.95;;;11.05;;
49722;SDS011;43484;43.608;1.458;2022-12-29T06:01:26;19.58;;;11.65;;
49722;SDS011;43484;43.608;1.458;2022-12-29T06:03:53;20.15;;;10.95;;
49722;SDS011;43484;43.608;1.458;2022-12-29T06:06:20;31.80;;;13.48;;
49722;SDS011;43484;43.608;1.458;2022-12-29T06:08:47;25.15;;;12.10;;
49722;SDS011;43484;43.608;1.458;2022-12-29T06:11:13;32.22;;;12.85;;
49722;SDS011;43484;43.608;1.458;2022-12-29T06:13:40;31.27;;;13.25;;
49722;SDS011;43484;43.608;1.458;2022-12-29T06:16:07;29.35;;;12.90;;
49722;SDS011;43484;43.608;1.458;2022-12-29T06:18:34;18.85;;;11.93;;
49722;SDS011;43484;43.608;1.458;2022-12-29T06:21:01;28.42;;;12.88;;
49722;SDS011;43484;43.608;1.458;2022-12-29T06:23:28;31.17;;;13.98;;
49722;SDS011;43484;43.608;1.458;2022-12-29T06:25:55;27.05;;;13.85;;
49722;SDS011;43484;43.608;1.458;2022-12-29T06:28:22;24.48;;;12.15;;
49722;SDS011;43484;43.608;1.458;2022-12-29T06:30:49;29.25;;;13.10;;
49722;SDS011;43484;43.608;1.458;2022-12-29T06:33:16;29.55;;;12.50;;
49722;SDS011;43484;43.608;1.458;2022-12-29T06:35:42;28.95;;;13.45;;
49722;SDS011;43484;43.608;1.458;2022-12-29T06:38:09;22.20;;;12.75;;
49722;SDS011;43484;43.608;1.458;2022-12-29T06:40:36;19.17;;;11.68;;
49722;SDS011;43484;43.608;1.458;2022-12-29T06:43:03;21.98;;;11.85;;
49722;SDS011;43484;43.608;1.458;2022-12-29T06:45:29;23.00;;;12.02;;
49722;SDS011;43484;43.608;1.458;2022-12-29T06:47:56;21.13;;;12.00;;
49722;SDS011;43484;43.608;1.458;2022-12-29T06:50:22;26.95;;;13.38;;
49722;SDS011;43484;43.608;1.458;2022-12-29T06:52:49;21.73;;;12.18;;
49722;SDS011;43484;43.608;1.458;2022-12-29T06:55:15;30.83;;;12.43;;
49722;SDS011;43484;43.608;1.458;2022-12-29T06:57:42;28.65;;;12.70;;
49722;SDS011;43484;43.608;1.458;2022-12-29T07:00:09;29.35;;;13.43;;
49722;SDS011;43484;43.608;1.458;2022-12-29T07:02:36;23.70;;;11.80;;
49722;SDS011;43484;43.608;1.458;2022-12-29T07:05:03;22.65;;;12.45;;
49722;SDS011;43484;43.608;1.458;2022-12-29T07:07:29;22.90;;;11.70;;
49722;SDS011;43484;43.608;1.458;2022-12-29T07:09:56;26.15;;;11.27;;
49722;SDS011;43484;43.608;1.458;2022-12-29T07:12:22;26.27;;;12.25;;
49722;SDS011;43484;43.608;1.458;2022-12-29T07:14:49;31.23;;;15.43;;
49722;SDS011;43484;43.608;1.458;2022-12-29T07:17:15;25.80;;;13.35;;
49722;SDS011;43484;43.608;1.458;2022-12-29T07:19:42;28.30;;;14.63;;
49722;SDS011;43484;43.608;1.458;2022-12-29T07:22:09;25.08;;;12.60;;
49722;SDS011;43484;43.608;1.458;2022-12-29T07:24:36;32.03;;;13.23;;
49722;SDS011;43484;43.608;1.458;2022-12-29T07:27:02;29.15;;;14.18;;
49722;SDS011;43484;43.608;1.458;2022-12-29T07:29:29;27.38;;;12.70;;
49722;SDS011;43484;43.608;1.458;2022-12-29T07:31:56;28.55;;;13.13;;
49722;SDS011;43484;43.608;1.458;2022-12-29T07:34:22;27.90;;;12.65;;
49722;SDS011;43484;43.608;1.458;2022-12-29T07:36:49;35.40;;;13.23;;
49722;SDS011;43484;43.608;1.458;2022-12-29T07:39:15;28.63;;;14.23;;
49722;SDS011;43484;43.608;1.458;2022-12-29T07:41:42;34.80;;;13.25;;
49722;SDS011;43484;43.608;1.458;2022-12-29T07:44:09;30.45;;;13.13;;
49722;SDS011;43484;43.608;1.458;2022-12-29T07:46:36;24.23;;;12.52;;
49722;SDS011;43484;43.608;1.458;2022-12-29T07:49:21;35.55;;;12.00;;
49722;SDS011;43484;43.608;1.458;2022-12-29T07:51:48;24.45;;;12.05;;
49722;SDS011;43484;43.608;1.458;2022-12-29T07:54:15;23.08;;;11.48;;
49722;SDS011;43484;43.608;1.458;2022-12-29T07:56:44;23.10;;;11.43;;
49722;SDS011;43484;43.608;1.458;2022-12-29T07:59:11;28.08;;;12.88;;
49722;SDS011;43484;43.608;1.458;2022-12-29T08:01:38;25.45;;;12.00;;
49722;SDS011;43484;43.608;1.458;2022-12-29T08:04:05;28.38;;;11.80;;
49722;SDS011;43484;43.608;1.458;2022-12-29T08:06:32;33.50;;;12.30;;
49722;SDS011;43484;43.608;1.458;2022-12-29T08:08:58;25.10;;;12.15;;
49722;SDS011;43484;43.608;1.458;2022-12-29T08:11:37;24.92;;;12.15;;
49722;SDS011;43484;43.608;1.458;2022-12-29T08:14:04;28.63;;;11.95;;
49722;SDS011;43484;43.608;1.458;2022-12-29T08:16:31;29.92;;;12.77;;
49722;SDS011;43484;43.608;1.458;2022-12-29T08:18:58;17.77;;;10.82;;
49722;SDS011;43484;43.608;1.458;2022-12-29T08:21:27;21.20;;;11.23;;
49722;SDS011;43484;43.608;1.458;2022-12-29T08:23:53;32.95;;;11.57;;
49722;SDS011;43484;43.608;1.458;2022-12-29T08:26:20;27.27;;;13.15;;
49722;SDS011;43484;43.608;1.458;2022-12-29T08:28:47;27.38;;;12.20;;
49722;SDS011;43484;43.608;1.458;2022-12-29T08:31:13;29.27;;;12.88;;
49722;SDS011;43484;43.608;1.458;2022-12-29T08:33:40;27.60;;;11.85;;
49722;SDS011;43484;43.608;1.458;2022-12-29T08:36:07;26.25;;;11.68;;
49722;SDS011;43484;43.608;1.458;2022-12-29T08:38:34;19.27;;;9.88;;
49722;SDS011;43484;43.608;1.458;2022-12-29T08:41:01;25.77;;;10.77;;
49722;SDS011;43484;43.608;1.458;2022-12-29T08:43:27;26.05;;;10.50;;
49722;SDS011;43484;43.608;1.458;2022-12-29T08:45:54;31.08;;;11.55;;
49722;SDS011;43484;43.608;1.458;2022-12-29T08:48:22;25.40;;;10.23;;
49722;SDS011;43484;43.608;1.458;2022-12-29T08:50:49;25.45;;;11.40;;
49722;SDS011;43484;43.608;1.458;2022-12-29T08:53:17;26.95;;;12.00;;
49722;SDS011;43484;43.608;1.458;2022-12-29T08:55:44;33.00;;;11.60;;
49722;SDS011;43484;43.608;1.458;2022-12-29T08:58:13;20.27;;;10.18;;
49722;SDS011;43484;43.608;1.458;2022-12-29T09:00:41;33.03;;;11.13;;
49722;SDS011;43484;43.608;1.458;2022-12-29T09:03:08;23.75;;;11.05;;
49722;SDS011;43484;43.608;1.458;2022-12-29T09:05:35;28.25;;;11.38;;
49722;SDS011;43484;43.608;1.458;2022-12-29T09:08:02;25.70;;;11.25;;
49722;SDS011;43484;43.608;1.458;2022-12-29T09:10:30;29.55;;;11.00;;
49722;SDS011;43484;43.608;1.458;2022-12-29T09:12:57;30.05;;;11.90;;
49722;SDS011;43484;43.608;1.458;2022-12-29T09:15:23;27.35;;;11.63;;
49722;SDS011;43484;43.608;1.458;2022-12-29T09:17:50;33.38;;;12.43;;
49722;SDS011;43484;43.608;1.458;2022-12-29T09:20:18;37.80;;;11.18;;
49722;SDS011;43484;43.608;1.458;2022-12-29T09:22:45;28.17;;;11.02;;
49722;SDS011;43484;43.608;1.458;2022-12-29T09:25:12;23.55;;;10.27;;
49722;SDS011;43484;43.608;1.458;2022-12-29T09:27:39;29.13;;;10.68;;
49722;SDS011;43484;43.608;1.458;2022-12-29T09:30:08;30.48;;;10.35;;
49722;SDS011;43484;43.608;1.458;2022-12-29T09:32:36;26.90;;;9.85;;
49722;SDS011;43484;43.608;1.458;2022-12-29T09:35:10;31.10;;;10.90;;
49722;SDS011;43484;43.608;1.458;2022-12-29T09:37:36;28.38;;;9.38;;
49722;SDS011;43484;43.608;1.458;2022-12-29T09:40:04;26.92;;;10.82;;
49722;SDS011;43484;43.608;1.458;2022-12-29T09:42:38;27.42;;;10.00;;
49722;SDS011;43484;43.608;1.458;2022-12-29T09:45:16;20.08;;;9.38;;
49722;SDS011;43484;43.608;1.458;2022-12-29T09:47:48;24.98;;;9.52;;
49722;SDS011;43484;43.608;1.458;2022-12-29T09:52:52;23.70;;;9.00;;
49722;SDS011;43484;43.608;1.458;2022-12-29T09:55:36;21.48;;;9.68;;
49722;SDS011;43484;43.608;1.458;2022-12-29T09:58:14;20.33;;;9.38;;
49722;SDS011;43484;43.608;1.458;2022-12-29T10:01:09;22.52;;;8.52;;
49722;SDS011;43484;43.608;1.458;2022-12-29T10:03:51;30.25;;;10.10;;
49722;SDS011;43484;43.608;1.458;2022-12-29T10:06:30;19.55;;;8.27;;
49722;SDS011;43484;43.608;1.458;2022-12-29T10:14:58;19.67;;;9.43;;
49722;SDS011;43484;43.608;1.458;2022-12-29T10:24:56;30.77;;;8.93;;
49722;SDS011;43484;43.608;1.458;2022-12-29T10:27:24;23.88;;;8.27;;
49722;SDS011;43484;43.608;1.458;2022-12-29T10:29:52;24.52;;;8.00;;
49722;SDS011;43484;43.608;1.458;2022-12-29T10:35:13;23.80;;;9.45;;
49722;SDS011;43484;43.608;1.458;2022-12-29T10:37:52;22.08;;;7.47;;
49722;SDS011;43484;43.608;1.458;2022-12-29T10:43:25;22.92;;;7.95;;
49722;SDS011;43484;43.608;1.458;2022-12-29T10:45:55;17.35;;;8.48;;
49722;SDS011;43484;43.608;1.458;2022-12-29T10:48:27;26.98;;;8.55;;
49722;SDS011;43484;43.608;1.458;2022-12-29T10:50:58;14.70;;;7.93;;
49722;SDS011;43484;43.608;1.458;2022-12-29T10:53:34;22.17;;;7.75;;
49722;SDS011;43484;43.608;1.458;2022-12-29T10:56:22;19.30;;;7.47;;
49722;SDS011;43484;43.608;1.458;2022-12-29T10:58:56;19.95;;;6.70;;
49722;SDS011;43484;43.608;1.458;2022-12-29T11:01:30;12.05;;;5.60;;
49722;SDS011;43484;43.608;1.458;2022-12-29T11:04:21;15.80;;;6.97;;
49722;SDS011;43484;43.608;1.458;2022-12-29T11:06:59;17.58;;;6.95;;
49722;SDS011;43484;43.608;1.458;2022-12-29T11:09:28;19.83;;;7.05;;
49722;SDS011;43484;43.608;1.458;2022-12-29T11:12:18;22.25;;;7.70;;
49722;SDS011;43484;43.608;1.458;2022-12-29T11:20:33;17.85;;;6.40;;
49722;SDS011;43484;43.608;1.458;2022-12-29T11:23:20;24.90;;;6.70;;
49722;SDS011;43484;43.608;1.458;2022-12-29T11:28:33;25.33;;;7.35;;
49722;SDS011;43484;43.608;1.458;2022-12-29T11:31:01;16.33;;;6.32;;
49722;SDS011;43484;43.608;1.458;2022-12-29T11:33:29;18.60;;;6.68;;
49722;SDS011;43484;43.608;1.458;2022-12-29T11:38:35;14.73;;;5.53;;
49722;SDS011;43484;43.608;1.458;2022-12-29T11:41:05;16.58;;;5.95;;
49722;SDS011;43484;43.608;1.458;2022-12-29T11:43:38;23.83;;;6.07;;
49722;SDS011;43484;43.608;1.458;2022-12-29T11:46:06;15.07;;;5.00;;
49722;SDS011;43484;43.608;1.458;2022-12-29T11:48:43;21.80;;;5.65;;
49722;SDS011;43484;43.608;1.458;2022-12-29T11:51:12;17.00;;;5.82;;
49722;SDS011;43484;43.608;1.458;2022-12-29T11:53:51;14.38;;;5.30;;
49722;SDS011;43484;43.608;1.458;2022-12-29T11:56:32;12.90;;;6.07;;
49722;SDS011;43484;43.608;1.458;2022-12-29T12:02:00;21.00;;;5.57;;
49722;SDS011;43484;43.608;1.458;2022-12-29T12:04:36;19.85;;;6.32;;
49722;SDS011;43484;43.608;1.458;2022-12-29T12:09:35;23.05;;;6.47;;
49722;SDS011;43484;43.608;1.458;2022-12-29T12:12:07;24.60;;;5.95;;
49722;SDS011;43484;43.608;1.458;2022-12-29T12:14:46;15.40;;;6.22;;
49722;SDS011;43484;43.608;1.458;2022-12-29T12:20:57;18.13;;;6.45;;
49722;SDS011;43484;43.608;1.458;2022-12-29T12:32:30;14.23;;;5.30;;
49722;SDS011;43484;43.608;1.458;2022-12-29T12:35:32;14.65;;;5.97;;
49722;SDS011;43484;43.608;1.458;2022-12-29T12:41:08;15.52;;;5.85;;
49722;SDS011;43484;43.608;1.458;2022-12-29T12:57:56;29.00;;;7.30;;
49722;SDS011;43484;43.608;1.458;2022-12-29T13:00:27;17.83;;;5.32;;
49722;SDS011;43484;43.608;1.458;2022-12-29T13:05:46;15.20;;;5.32;;
49722;SDS011;43484;43.608;1.458;2022-12-29T13:20:25;15.00;;;5.60;;
49722;SDS011;43484;43.608;1.458;2022-12-29T13:23:07;14.77;;;5.47;;
49722;SDS011;43484;43.608;1.458;2022-12-29T13:26:01;21.00;;;6.85;;
49722;SDS011;43484;43.608;1.458;2022-12-29T13:31:12;14.45;;;5.72;;
49722;SDS011;43484;43.608;1.458;2022-12-29T13:33:58;15.93;;;5.93;;
49722;SDS011;43484;43.608;1.458;2022-12-29T13:36:40;22.48;;;6.30;;
49722;SDS011;43484;43.608;1.458;2022-12-29T13:39:25;14.43;;;4.80;;
49722;SDS011;43484;43.608;1.458;2022-12-29T13:41:55;12.18;;;5.07;;
49722;SDS011;43484;43.608;1.458;2022-12-29T13:47:22;14.60;;;4.28;;
49722;SDS011;43484;43.608;1.458;2022-12-29T13:50:03;16.20;;;5.15;;
49722;SDS011;43484;43.608;1.458;2022-12-29T13:55:28;24.27;;;5.50;;
49722;SDS011;43484;43.608;1.458;2022-12-29T14:03:46;17.88;;;4.95;;
49722;SDS011;43484;43.608;1.458;2022-12-29T14:06:20;21.30;;;5.70;;
49722;SDS011;43484;43.608;1.458;2022-12-29T14:08:53;20.05;;;5.00;;
49722;SDS011;43484;43.608;1.458;2022-12-29T14:11:23;17.33;;;5.65;;
49722;SDS011;43484;43.608;1.458;2022-12-29T14:13:57;11.95;;;5.40;;
49722;SDS011;43484;43.608;1.458;2022-12-29T14:16:26;20.75;;;4.57;;
49722;SDS011;43484;43.608;1.458;2022-12-29T14:18:53;16.63;;;4.78;;
49722;SDS011;43484;43.608;1.458;2022-12-29T14:21:24;18.08;;;5.35;;
49722;SDS011;43484;43.608;1.458;2022-12-29T14:24:02;22.25;;;5.78;;
49722;SDS011;43484;43.608;1.458;2022-12-29T14:35:47;13.35;;;4.93;;
49722;SDS011;43484;43.608;1.458;2022-12-29T14:38:16;19.70;;;5.85;;
49722;SDS011;43484;43.608;1.458;2022-12-29T14:40:46;26.00;;;7.50;;
49722;SDS011;43484;43.608;1.458;2022-12-29T14:43:18;14.27;;;6.25;;
49722;SDS011;43484;43.608;1.458;2022-12-29T14:45:56;18.25;;;5.43;;
49722;SDS011;43484;43.608;1.458;2022-12-29T14:51:16;21.10;;;6.57;;
49722;SDS011;43484;43.608;1.458;2022-12-29T14:56:12;23.95;;;6.38;;
49722;SDS011;43484;43.608;1.458;2022-12-29T14:58:51;21.88;;;7.97;;
49722;SDS011;43484;43.608;1.458;2022-12-29T15:01:22;18.25;;;7.30;;
49722;SDS011;43484;43.608;1.458;2022-12-29T15:03:54;14.25;;;6.28;;
49722;SDS011;43484;43.608;1.458;2022-12-29T15:06:25;20.45;;;6.78;;
49722;SDS011;43484;43.608;1.458;2022-12-29T15:08:59;21.05;;;7.32;;
49722;SDS011;43484;43.608;1.458;2022-12-29T15:16:56;17.42;;;6.20;;
49722;SDS011;43484;43.608;1.458;2022-12-29T15:19:24;19.52;;;7.00;;
49722;SDS011;43484;43.608;1.458;2022-12-29T15:21:54;16.80;;;5.82;;
49722;SDS011;43484;43.608;1.458;2022-12-29T15:24:23;22.10;;;6.72;;
49722;SDS011;43484;43.608;1.458;2022-12-29T15:26:50;20.45;;;6.72;;
49722;SDS011;43484;43.608;1.458;2022-12-29T15:32:10;19.00;;;5.85;;
49722;SDS011;43484;43.608;1.458;2022-12-29T15:34:58;12.82;;;6.63;;
49722;SDS011;43484;43.608;1.458;2022-12-29T15:37:33;18.75;;;7.82;;
49722;SDS011;43484;43.608;1.458;2022-12-29T15:40:02;15.55;;;6.90;;
49722;SDS011;43484;43.608;1.458;2022-12-29T15:45:14;17.60;;;7.40;;
49722;SDS011;43484;43.608;1.458;2022-12-29T15:47:42;18.73;;;7.57;;
49722;SDS011;43484;43.608;1.458;2022-12-29T15:50:31;19.42;;;7.05;;
49722;SDS011;43484;43.608;1.458;2022-12-29T15:53:00;19.30;;;7.00;;
49722;SDS011;43484;43.608;1.458;2022-12-29T15:55:35;23.13;;;8.00;;
49722;SDS011;43484;43.608;1.458;2022-12-29T15:58:05;16.63;;;7.47;;
49722;SDS011;43484;43.608;1.458;2022-12-29T16:00:49;22.35;;;8.00;;
49722;SDS011;43484;43.608;1.458;2022-12-29T16:05:50;15.80;;;7.28;;
49722;SDS011;43484;43.608;1.458;2022-12-29T16:08:39;19.58;;;7.60;;
49722;SDS011;43484;43.608;1.458;2022-12-29T16:13:58;26.20;;;10.10;;
49722;SDS011;43484;43.608;1.458;2022-12-29T16:16:26;24.00;;;12.32;;
49722;SDS011;43484;43.608;1.458;2022-12-29T16:18:56;25.17;;;9.57;;
49722;SDS011;43484;43.608;1.458;2022-12-29T16:21:25;35.47;;;12.15;;
49722;SDS011;43484;43.608;1.458;2022-12-29T16:23:57;25.80;;;12.38;;
49722;SDS011;43484;43.608;1.458;2022-12-29T16:26:28;28.63;;;12.68;;
49722;SDS011;43484;43.608;1.458;2022-12-29T16:28:59;23.50;;;11.98;;
49722;SDS011;43484;43.608;1.458;2022-12-29T16:31:35;33.60;;;12.90;;
49722;SDS011;43484;43.608;1.458;2022-12-29T16:37:04;22.95;;;11.88;;
49722;SDS011;43484;43.608;1.458;2022-12-29T16:39:51;26.38;;;10.93;;
49722;SDS011;43484;43.608;1.458;2022-12-29T16:47:47;28.63;;;12.90;;
49722;SDS011;43484;43.608;1.458;2022-12-29T16:50:17;29.52;;;14.13;;
49722;SDS011;43484;43.608;1.458;2022-12-29T16:52:54;29.67;;;12.23;;
49722;SDS011;43484;43.608;1.458;2022-12-29T16:55:20;29.65;;;14.65;;
49722;SDS011;43484;43.608;1.458;2022-12-29T16:57:47;29.92;;;15.40;;
49722;SDS011;43484;43.608;1.458;2022-12-29T17:00:18;27.00;;;14.13;;
49722;SDS011;43484;43.608;1.458;2022-12-29T17:03:04;31.83;;;14.40;;
49722;SDS011;43484;43.608;1.458;2022-12-29T17:05:32;53.17;;;28.95;;
49722;SDS011;43484;43.608;1.458;2022-12-29T17:07:58;46.45;;;23.27;;
49722;SDS011;43484;43.608;1.458;2022-12-29T17:10:27;31.33;;;14.10;;
49722;SDS011;43484;43.608;1.458;2022-12-29T17:13:14;34.83;;;15.73;;
49722;SDS011;43484;43.608;1.458;2022-12-29T17:15:40;49.65;;;23.15;;
49722;SDS011;43484;43.608;1.458;2022-12-29T17:18:07;30.83;;;15.82;;
49722;SDS011;43484;43.608;1.458;2022-12-29T17:20:39;32.42;;;15.65;;
49722;SDS011;43484;43.608;1.458;2022-12-29T17:23:10;18.38;;;7.22;;
49722;SDS011;43484;43.608;1.458;2022-12-29T17:25:49;5.70;;;2.30;;
49722;SDS011;43484;43.608;1.458;2022-12-29T17:28:23;6.07;;;3.75;;
49722;SDS011;43484;43.608;1.458;2022-12-29T17:30:52;8.35;;;3.38;;
49722;SDS011;43484;43.608;1.458;2022-12-29T17:33:23;7.22;;;3.38;;
49722;SDS011;43484;43.608;1.458;2022-12-29T17:35:50;4.13;;;2.70;;
49722;SDS011;43484;43.608;1.458;2022-12-29T17:40:55;6.72;;;3.50;;
49722;SDS011;43484;43.608;1.458;2022-12-29T17:43:22;5.05;;;2.95;;
49722;SDS011;43484;43.608;1.458;2022-12-29T17:45:52;3.42;;;2.03;;
49722;SDS011;43484;43.608;1.458;2022-12-29T17:48:21;10.55;;;2.92;;
49722;SDS011;43484;43.608;1.458;2022-12-29T17:50:49;6.65;;;3.47;;